LGAVLGLM

Guest
Details From LGAV - Athens Intl Airport Elefterios Venizel
To LGLM - Limnos
Flight Number -
Tags decoded
Created
Modified
Stats Distance 142 nm / 263 km
Max Altitude 0 ft / 0 m
Waypoints 4
Social Downloads 1
Likes 0
Share VATSIM

Download

Looking for another format? Having issues loading an existing format? Contact us
Advertisement - Login to hide

Notes

Requested: LGAV NEVRA UG33 KOROS LGLM

Route

LGAV NEVRA UG33 KOROS LGLM

ID Type Via Altitude Latitude Longitude Leg Dist Tot Dist Heading (true) Name
O LGAV APT - 0 ft / 0 m 37.93636˚ 23.94447˚ - 0 nm - Athens Intl Airport Elefterios Venizel
NEVRA FIX - 0 ft / 0 m 38.16833˚ 24.56028˚ 32 nm 32 nm 64° / 65° -
KOROS FIX UG33 (AWY-HI) 0 ft / 0 m 39.09972˚ 24.91583˚ 58 nm 90 nm 16° / 17° -
O LGLM APT - 0 ft / 0 m 39.91703˚ 25.23635˚ 51 nm 141 nm 17° / 17° Limnos

Altitude Profile

Advertisement - Login to hide

LGAV

Details ICAO LGAV (ATH)
Name Athens Intl Airport Elefterios Venizel
Region Greece
Timezone Europe/Athens (UTC+3.0)
Stats Elevation 308 ft / 94 m (AMSL)
Location 37.936357° 23.944470°
Runways 2
Magnetic Variation 4.527° E

METAR

LGAV 231120Z 04015KT 9999 FEW030 25/14 Q1017 NOSIG

Decode

TAF

TAF TAF LGAV 230500Z 2306/2406 03010KT 9999 FEW030 TEMPO 2306/2310 03013G23KT

Decode

Departure Runways

ID Width Length Bearing (true) Bearing (mag) Surface Threshold Offset Overrun Length
03L 148 ft / 45 m 12,474 ft / 3,802 m 36.51° 31.98° Asphalt 984 ft / 300 m 393 ft / 120 m
03R 148 ft / 45 m 13,131 ft / 4,002 m 36.52° 31.99° Asphalt 984 ft / 300 m 393 ft / 120 m
21L 148 ft / 45 m 13,131 ft / 4,002 m 216.54° 212.01° Asphalt 984 ft / 300 m 393 ft / 120 m
21R 148 ft / 45 m 12,474 ft / 3,802 m 216.53° 212.00° Asphalt 984 ft / 300 m 393 ft / 120 m

LGLM

Details ICAO LGLM (LXS)
Name Limnos
Region Greece
Timezone Europe/Athens (UTC+3.0)
Stats Elevation 14 ft / 4 m (AMSL)
Location 39.917028° 25.236348°
Runways 1
Magnetic Variation 4.901° E

METAR

LGLM 231120Z 03010KT CAVOK 25/15 Q1018

Decode

TAF

Not found

Destination Runways

ID Width Length Bearing (true) Bearing (mag) Surface Threshold Offset Overrun Length
04R 148 ft / 45 m 9,842 ft / 3,000 m 43.04° 38.14° Asphalt 0 ft / 0 m 920 ft / 280 m
22L 148 ft / 45 m 9,842 ft / 3,000 m 223.05° 218.15° Asphalt 0 ft / 0 m 920 ft / 280 m

Popular Alternatives